createdAt,value
2022-12-03T00:00:56.664Z,24.73
2022-12-03T00:03:24.556Z,22.27
2022-12-03T00:05:52.448Z,21.47
2022-12-03T00:08:20.236Z,24.77
2022-12-03T00:10:47.991Z,22.53
2022-12-03T00:13:15.793Z,23.93
2022-12-03T00:15:43.628Z,20.67
2022-12-03T00:18:12.201Z,21.37
2022-12-03T00:20:40.065Z,28.40
2022-12-03T00:23:07.949Z,28.40
2022-12-03T00:25:35.712Z,23.97
2022-12-03T00:28:03.788Z,24.90
2022-12-03T00:30:32.644Z,26.37
2022-12-03T00:33:01.604Z,21.27
2022-12-03T00:35:29.354Z,23.43
2022-12-03T00:37:57.142Z,20.83
2022-12-03T00:40:24.942Z,23.97
2022-12-03T00:42:52.755Z,23.63
2022-12-03T00:45:20.546Z,21.87
2022-12-03T00:47:48.337Z,24.33
2022-12-03T00:50:16.180Z,24.87
2022-12-03T00:52:44.665Z,22.20
2022-12-03T00:55:12.479Z,24.73
2022-12-03T00:57:40.319Z,24.40
2022-12-03T01:00:11.593Z,24.63
2022-12-03T01:02:39.449Z,21.60
2022-12-03T01:05:08.162Z,24.17
2022-12-03T01:07:36.423Z,24.40
2022-12-03T01:10:06.172Z,24.67
2022-12-03T01:12:34.009Z,25.37
2022-12-03T01:15:01.776Z,29.20
2022-12-03T01:17:29.560Z,27.40
2022-12-03T01:19:59.123Z,23.87
2022-12-03T01:22:27.258Z,22.10
2022-12-03T01:24:55.331Z,20.33
2022-12-03T01:27:23.817Z,21.63
2022-12-03T01:29:51.585Z,22.23
2022-12-03T01:32:19.841Z,17.93
2022-12-03T01:34:53.786Z,21.10
2022-12-03T01:39:52.872Z,18.63
2022-12-03T01:42:35.174Z,19.37
2022-12-03T01:45:04.337Z,17.37
2022-12-03T01:47:36.139Z,17.67
2022-12-03T01:50:30.300Z,17.90
2022-12-03T01:53:03.051Z,18.40
2022-12-03T01:55:31.290Z,20.10
2022-12-03T01:58:01.996Z,18.00
2022-12-03T02:00:30.704Z,19.10
2022-12-03T02:03:03.807Z,18.20
2022-12-03T02:05:33.374Z,16.63
2022-12-03T02:08:01.720Z,16.23
2022-12-03T02:10:36.228Z,17.33
2022-12-03T02:13:10.459Z,17.70
2022-12-03T02:15:40.169Z,15.13
2022-12-03T02:18:10.189Z,19.63
2022-12-03T02:20:53.556Z,14.70
2022-12-03T02:23:47.115Z,16.40
2022-12-03T02:26:14.937Z,16.13
2022-12-03T02:28:43.050Z,16.07
2022-12-03T02:31:11.250Z,13.63
2022-12-03T02:33:39.083Z,14.77
2022-12-03T02:36:07.350Z,16.33
2022-12-03T02:38:35.942Z,15.27
2022-12-03T02:41:09.214Z,17.33
2022-12-03T02:43:37.593Z,15.23
2022-12-03T02:46:07.771Z,16.27
2022-12-03T02:48:40.048Z,16.57
2022-12-03T02:51:10.868Z,17.00
2022-12-03T02:53:44.784Z,15.80
2022-12-03T02:56:18.297Z,18.50
2022-12-03T02:58:50.302Z,18.58
2022-12-03T03:01:18.537Z,16.47
2022-12-03T03:03:48.812Z,19.63
2022-12-03T03:06:19.519Z,17.53
2022-12-03T03:08:48.163Z,17.40
2022-12-03T03:11:16.091Z,16.70
2022-12-03T03:13:44.206Z,19.33
2022-12-03T03:16:12.149Z,17.63
2022-12-03T03:18:40.713Z,15.47
2022-12-03T03:21:08.805Z,16.03
2022-12-03T03:23:36.692Z,16.70
2022-12-03T03:26:14.136Z,16.70
2022-12-03T03:28:49.772Z,19.40
2022-12-03T03:31:23.049Z,18.10
2022-12-03T03:33:51.621Z,17.15
2022-12-03T03:36:20.325Z,20.37
2022-12-03T03:38:48.653Z,17.90
2022-12-03T03:41:17.334Z,18.60
2022-12-03T03:43:46.090Z,16.17
2022-12-03T03:46:15.044Z,19.00
2022-12-03T03:48:44.447Z,18.00
2022-12-03T03:51:13.458Z,20.57
2022-12-03T03:53:46.058Z,19.57
2022-12-03T03:56:16.688Z,20.47
2022-12-03T03:58:44.797Z,18.40
2022-12-03T04:01:14.571Z,19.37
2022-12-03T04:03:42.617Z,17.20
2022-12-03T04:06:11.242Z,16.70
2022-12-03T04:08:39.093Z,17.47
2022-12-03T04:11:25.591Z,21.40
2022-12-03T04:13:53.406Z,18.87
2022-12-03T04:16:21.278Z,18.20
2022-12-03T04:18:49.268Z,18.07
2022-12-03T04:21:39.603Z,24.03
2022-12-03T04:24:10.323Z,26.00
2022-12-03T04:26:56.760Z,19.13
2022-12-03T04:29:24.693Z,18.80
2022-12-03T04:32:11.336Z,20.07
2022-12-03T04:34:57.685Z,21.93
2022-12-03T04:37:25.662Z,19.80
2022-12-03T04:39:53.422Z,18.87
2022-12-03T04:42:21.320Z,20.93
2022-12-03T04:44:50.080Z,20.43
2022-12-03T04:47:21.118Z,21.93
2022-12-03T04:49:51.786Z,25.47
2022-12-03T04:52:20.899Z,21.67
2022-12-03T04:54:48.691Z,17.20
2022-12-03T04:57:16.693Z,22.27
2022-12-03T04:59:44.480Z,17.47
2022-12-03T05:02:12.381Z,17.37
2022-12-03T05:04:40.222Z,19.93
2022-12-03T05:07:08.064Z,18.40
2022-12-03T05:09:36.058Z,17.60
2022-12-03T05:12:04.165Z,21.50
2022-12-03T05:14:32.015Z,21.40
2022-12-03T05:17:00.067Z,21.53
2022-12-03T05:19:47.927Z,27.00
2022-12-03T05:22:15.694Z,27.83
2022-12-03T05:24:43.560Z,26.77
2022-12-03T05:27:11.378Z,24.30
2022-12-03T05:29:39.144Z,21.97
2022-12-03T05:32:07.052Z,24.87
2022-12-03T05:34:34.875Z,26.93
2022-12-03T05:37:02.643Z,24.70
2022-12-03T05:39:30.444Z,33.57
2022-12-03T05:42:16.756Z,30.97
2022-12-03T05:44:44.636Z,30.20
2022-12-03T05:47:12.482Z,36.20
2022-12-03T05:49:40.613Z,34.53
2022-12-03T05:52:08.420Z,32.30
2022-12-03T05:54:36.207Z,40.20
2022-12-03T05:57:04.247Z,40.77
2022-12-03T05:59:32.199Z,40.63
2022-12-03T06:02:00.199Z,41.57
2022-12-03T06:04:28.083Z,35.03
2022-12-03T06:06:55.868Z,39.73
2022-12-03T06:09:23.674Z,36.80
2022-12-03T06:11:54.159Z,36.57
2022-12-03T06:14:22.186Z,41.63
2022-12-03T06:16:49.983Z,30.00
2022-12-03T06:19:18.311Z,37.43
2022-12-03T06:21:46.075Z,33.47
2022-12-03T06:24:13.895Z,37.67
2022-12-03T06:26:41.654Z,41.83
2022-12-03T06:29:09.941Z,36.03
2022-12-03T06:31:37.789Z,39.47
2022-12-03T06:34:05.674Z,48.40
2022-12-03T06:36:33.481Z,42.40
2022-12-03T06:39:01.315Z,35.50
2022-12-03T06:41:29.112Z,35.97
2022-12-03T06:43:56.904Z,32.00
2022-12-03T06:46:24.784Z,37.73
2022-12-03T06:48:52.637Z,36.00
2022-12-03T06:51:23.996Z,34.57
2022-12-03T06:53:53.207Z,40.03
2022-12-03T06:56:22.558Z,35.30
2022-12-03T06:58:50.697Z,38.00
2022-12-03T07:01:18.658Z,33.50
2022-12-03T07:03:46.975Z,32.17
2022-12-03T07:06:15.336Z,30.07
2022-12-03T07:08:43.274Z,32.67
2022-12-03T07:11:29.660Z,35.40
2022-12-03T07:14:04.745Z,32.63
2022-12-03T07:16:37.685Z,40.93
2022-12-03T07:19:20.629Z,30.93
2022-12-03T07:21:48.468Z,33.83
2022-12-03T07:24:16.294Z,31.20
2022-12-03T07:26:44.193Z,30.97
2022-12-03T07:29:12.016Z,32.57
2022-12-03T07:31:39.808Z,28.30
2022-12-03T07:34:08.260Z,32.00
2022-12-03T07:36:36.198Z,35.13
2022-12-03T07:39:04.340Z,33.03
2022-12-03T07:41:32.111Z,32.67
2022-12-03T07:43:59.964Z,34.30
2022-12-03T07:46:27.862Z,31.77
2022-12-03T07:48:55.695Z,35.30
2022-12-03T07:51:26.218Z,30.40
2022-12-03T07:53:58.395Z,37.73
2022-12-03T07:56:26.455Z,33.93
2022-12-03T07:58:55.006Z,32.57
2022-12-03T08:01:23.198Z,32.13
2022-12-03T08:03:52.090Z,31.90
2022-12-03T08:06:20.064Z,36.10
2022-12-03T08:08:47.910Z,37.57
2022-12-03T08:11:15.782Z,37.57
2022-12-03T08:13:43.659Z,33.80
2022-12-03T08:16:21.657Z,38.17
2022-12-03T08:18:51.317Z,32.37
2022-12-03T08:21:21.195Z,34.80
2022-12-03T08:23:49.095Z,33.03
2022-12-03T08:26:24.728Z,32.13
2022-12-03T08:28:54.359Z,33.10
2022-12-03T08:31:32.460Z,35.70
2022-12-03T08:34:24.036Z,38.03
2022-12-03T08:38:13.279Z,40.33
2022-12-03T08:40:48.017Z,36.13
2022-12-03T08:43:24.859Z,42.13
2022-12-03T08:45:56.037Z,44.03
2022-12-03T08:48:38.756Z,55.77
2022-12-03T08:51:25.246Z,44.60
2022-12-03T08:54:01.777Z,36.40
2022-12-03T08:56:33.607Z,37.93
2022-12-03T08:59:26.839Z,42.07
2022-12-03T09:01:55.189Z,35.67
2022-12-03T09:04:53.279Z,38.90
2022-12-03T09:07:21.288Z,38.20
2022-12-03T09:09:49.098Z,39.37
2022-12-03T09:12:16.878Z,42.60
2022-12-03T09:14:44.697Z,44.07
2022-12-03T09:17:12.551Z,37.80
2022-12-03T09:19:46.232Z,49.23
2022-12-03T09:22:15.259Z,52.03
2022-12-03T09:24:43.449Z,44.40
2022-12-03T09:27:11.245Z,55.43
2022-12-03T09:29:39.075Z,48.63
2022-12-03T09:32:06.990Z,49.80
2022-12-03T09:34:34.973Z,52.90
2022-12-03T09:37:02.765Z,49.70
2022-12-03T09:39:30.591Z,43.70
2022-12-03T09:41:58.413Z,42.33
2022-12-03T09:44:30.529Z,34.43
2022-12-03T09:47:01.412Z,38.10
2022-12-03T09:49:32.748Z,38.87
2022-12-03T09:52:04.079Z,35.07
2022-12-03T09:54:33.277Z,38.70
2022-12-03T09:57:04.365Z,38.10
2022-12-03T09:59:34.818Z,34.37
2022-12-03T10:02:03.674Z,35.67
2022-12-03T10:04:32.079Z,37.17
2022-12-03T10:07:00.555Z,33.43
2022-12-03T10:09:30.423Z,31.50
2022-12-03T10:11:59.917Z,40.13
2022-12-03T10:14:28.276Z,40.13
2022-12-03T10:16:56.562Z,39.20
2022-12-03T10:19:31.679Z,40.20
2022-12-03T10:21:59.746Z,31.23
2022-12-03T10:24:36.321Z,39.97
2022-12-03T10:27:21.836Z,48.10
2022-12-03T10:29:58.703Z,37.27
2022-12-03T10:32:45.879Z,36.50
2022-12-03T10:35:20.846Z,37.30
2022-12-03T10:38:18.508Z,45.70
2022-12-03T10:40:46.791Z,50.93
2022-12-03T10:43:24.624Z,42.50
2022-12-03T10:46:11.659Z,72.33
2022-12-03T10:48:39.620Z,67.00
2022-12-03T10:51:23.191Z,56.03
2022-12-03T10:53:51.330Z,34.05
2022-12-03T10:56:25.837Z,35.90
2022-12-03T10:58:54.130Z,42.23
2022-12-03T11:01:25.678Z,38.47
2022-12-03T11:03:56.670Z,34.77
2022-12-03T11:06:24.516Z,37.70
2022-12-03T11:08:57.863Z,42.03
2022-12-03T11:11:30.967Z,38.70
2022-12-03T11:14:01.831Z,38.90
2022-12-03T11:16:41.814Z,43.03
2022-12-03T11:19:39.108Z,25.37
2022-12-03T11:22:06.756Z,25.10
2022-12-03T11:24:37.841Z,30.77
2022-12-03T11:27:06.973Z,32.90
2022-12-03T11:29:54.524Z,30.37
2022-12-03T11:32:42.898Z,32.87
2022-12-03T11:35:35.821Z,24.90
2022-12-03T11:38:37.541Z,28.77
2022-12-03T11:41:25.256Z,29.47
2022-12-03T11:43:53.180Z,31.73
2022-12-03T11:46:40.627Z,28.50
2022-12-03T11:49:39.922Z,23.87
2022-12-03T11:52:32.231Z,33.63
2022-12-03T11:55:34.414Z,36.77
2022-12-03T11:58:28.326Z,47.80
2022-12-03T12:00:59.426Z,30.45
2022-12-03T12:03:35.582Z,29.97
2022-12-03T12:06:42.537Z,24.67
2022-12-03T12:09:10.974Z,32.83
2022-12-03T12:11:41.526Z,31.37
2022-12-03T12:14:13.256Z,21.23
2022-12-03T12:16:55.324Z,23.60
2022-12-03T12:19:41.494Z,22.83
2022-12-03T12:22:18.424Z,26.03
2022-12-03T12:24:52.880Z,24.37
2022-12-03T12:27:39.393Z,23.77
2022-12-03T12:30:18.607Z,22.37
2022-12-03T12:32:57.821Z,27.97
2022-12-03T12:35:32.908Z,32.03
2022-12-03T12:38:06.510Z,22.90
2022-12-03T12:40:40.729Z,21.83
2022-12-03T12:43:15.223Z,28.87
2022-12-03T12:45:45.337Z,28.47
2022-12-03T12:48:12.981Z,28.30
2022-12-03T12:50:44.046Z,29.77
2022-12-03T12:53:19.837Z,25.80
2022-12-03T12:55:49.599Z,22.67
2022-12-03T12:58:20.062Z,20.93
2022-12-03T13:00:55.897Z,21.80
2022-12-03T13:03:29.124Z,34.03
2022-12-03T13:05:57.932Z,27.25
2022-12-03T13:08:39.495Z,27.23
2022-12-03T13:11:30.834Z,25.43
2022-12-03T13:13:58.689Z,20.67
2022-12-03T13:16:31.308Z,21.37
2022-12-03T13:19:01.379Z,20.70
2022-12-03T13:21:40.453Z,22.60
2022-12-03T13:24:39.115Z,19.03
2022-12-03T13:27:21.680Z,24.37
2022-12-03T13:29:56.265Z,27.27
2022-12-03T13:32:37.461Z,29.53
2022-12-03T13:35:31.770Z,23.67
2022-12-03T13:37:59.715Z,27.38
2022-12-03T13:40:31.753Z,29.60
2022-12-03T13:42:59.818Z,24.77
2022-12-03T13:45:40.257Z,39.23
2022-12-03T13:48:35.166Z,27.37
2022-12-03T13:51:27.329Z,24.47
2022-12-03T13:53:55.522Z,23.20
2022-12-03T13:56:33.815Z,25.90
2022-12-03T13:59:03.618Z,29.13
2022-12-03T14:01:31.547Z,24.27
2022-12-03T14:03:59.429Z,32.00
2022-12-03T14:06:27.243Z,23.03
2022-12-03T14:08:55.099Z,28.43
2022-12-03T14:11:41.457Z,26.10
2022-12-03T14:14:09.335Z,22.10
2022-12-03T14:16:37.223Z,23.07
2022-12-03T14:19:06.274Z,24.40
2022-12-03T14:21:34.073Z,23.07
2022-12-03T14:24:01.930Z,23.83
2022-12-03T14:26:29.733Z,22.57
2022-12-03T14:28:57.499Z,20.60
2022-12-03T14:31:25.368Z,24.10
2022-12-03T14:33:53.208Z,25.37
2022-12-03T14:36:22.264Z,26.47
2022-12-03T14:38:50.773Z,22.97
2022-12-03T14:41:37.424Z,23.27
2022-12-03T14:44:07.380Z,28.50
2022-12-03T14:46:37.360Z,27.27
2022-12-03T14:49:06.915Z,25.13
2022-12-03T14:51:35.539Z,28.57
2022-12-03T14:54:05.168Z,37.30
2022-12-03T14:56:32.934Z,30.73
2022-12-03T14:59:00.947Z,25.50
2022-12-03T15:01:29.007Z,25.20
2022-12-03T15:03:56.915Z,23.90
2022-12-03T15:06:24.797Z,31.37
2022-12-03T15:08:52.629Z,25.27
2022-12-03T15:11:20.465Z,29.37
2022-12-03T15:13:48.423Z,26.80
2022-12-03T15:16:16.791Z,27.63
2022-12-03T15:18:45.170Z,27.57
2022-12-03T15:21:12.941Z,33.13
2022-12-03T15:23:40.829Z,28.07
2022-12-03T15:26:09.039Z,33.33
2022-12-03T15:28:36.850Z,25.77
2022-12-03T15:31:04.907Z,25.13
2022-12-03T15:33:32.749Z,27.10
2022-12-03T15:36:00.665Z,24.77
2022-12-03T15:38:29.235Z,24.93
2022-12-03T15:40:58.078Z,24.53
2022-12-03T15:43:26.891Z,22.93
2022-12-03T15:45:56.423Z,28.43
2022-12-03T15:48:24.354Z,22.23
2022-12-03T15:50:52.142Z,28.73
2022-12-03T15:53:19.948Z,23.07
2022-12-03T15:55:47.755Z,21.77
2022-12-03T15:58:15.527Z,26.47
2022-12-03T16:00:43.366Z,21.47
2022-12-03T16:03:11.212Z,24.10
2022-12-03T16:05:39.125Z,20.00
2022-12-03T16:08:07.166Z,24.33
2022-12-03T16:10:34.994Z,21.73
2022-12-03T16:13:02.958Z,22.03
2022-12-03T16:15:31.152Z,19.53
2022-12-03T16:17:59.094Z,25.90
2022-12-03T16:20:27.099Z,23.07
2022-12-03T16:22:54.919Z,21.77
2022-12-03T16:25:22.770Z,37.40
2022-12-03T16:27:50.579Z,22.93
2022-12-03T16:30:18.623Z,25.60
2022-12-03T16:32:46.923Z,24.63
2022-12-03T16:35:15.648Z,21.07
2022-12-03T16:37:43.679Z,22.37
2022-12-03T16:40:12.140Z,16.30
2022-12-03T16:42:40.010Z,24.33
2022-12-03T16:45:08.967Z,23.77
2022-12-03T16:47:37.280Z,30.83
2022-12-03T16:50:13.000Z,28.20
2022-12-03T16:52:47.379Z,36.00
2022-12-03T16:55:15.259Z,32.83
2022-12-03T16:57:43.016Z,34.63
2022-12-03T17:00:11.786Z,33.47
2022-12-03T17:02:39.673Z,30.03
2022-12-03T17:05:08.324Z,35.57
2022-12-03T17:07:36.354Z,49.13
2022-12-03T17:10:05.692Z,39.17
2022-12-03T17:13:07.218Z,43.63
2022-12-03T17:15:21.582Z,36.50
2022-12-03T17:17:49.412Z,43.80
2022-12-03T17:20:18.022Z,46.63
2022-12-03T17:22:45.787Z,35.67
2022-12-03T17:25:13.727Z,29.47
2022-12-03T17:27:45.025Z,25.63
2022-12-03T17:30:14.080Z,23.53
2022-12-03T17:32:42.048Z,23.73
2022-12-03T17:35:10.989Z,18.03
2022-12-03T17:37:40.530Z,21.73
2022-12-03T17:40:11.417Z,19.90
2022-12-03T17:42:39.592Z,17.87
2022-12-03T17:45:08.346Z,22.40
2022-12-03T17:47:36.120Z,25.67
2022-12-03T17:50:04.287Z,27.77
2022-12-03T17:52:32.054Z,27.80
2022-12-03T17:55:11.731Z,87.83
2022-12-03T17:57:40.917Z,65.30
2022-12-03T18:00:09.655Z,31.60
2022-12-03T18:02:39.949Z,34.50
2022-12-03T18:05:08.274Z,31.27
2022-12-03T18:07:36.214Z,32.10
2022-12-03T18:10:04.666Z,33.80
2022-12-03T18:12:32.759Z,58.17
2022-12-03T18:15:00.599Z,37.23
2022-12-03T18:17:28.394Z,31.37
2022-12-03T18:19:56.651Z,23.77
2022-12-03T18:22:25.844Z,32.80
2022-12-03T18:24:54.739Z,26.10
2022-12-03T18:27:23.308Z,28.90
2022-12-03T18:29:51.550Z,30.17
2022-12-03T18:32:28.900Z,30.47
2022-12-03T18:34:58.714Z,38.63
2022-12-03T18:37:29.751Z,26.07
2022-12-03T18:39:58.585Z,20.70
2022-12-03T18:42:26.940Z,30.33
2022-12-03T18:44:56.411Z,28.70
2022-12-03T18:47:28.408Z,31.60
2022-12-03T18:49:56.684Z,43.87
2022-12-03T18:52:25.235Z,30.80
2022-12-03T18:54:54.487Z,32.57
2022-12-03T18:57:22.377Z,38.30
2022-12-03T18:59:50.240Z,31.90
2022-12-03T19:03:01.829Z,32.60
2022-12-03T19:05:11.365Z,35.23
2022-12-03T19:07:39.370Z,31.27
2022-12-03T19:10:08.828Z,32.63
2022-12-03T19:12:37.940Z,30.53
2022-12-03T19:15:07.010Z,33.20
2022-12-03T19:17:34.797Z,42.67
2022-12-03T19:20:02.683Z,38.80
2022-12-03T19:22:30.482Z,30.10
2022-12-03T19:24:58.319Z,33.40
2022-12-03T19:27:26.099Z,38.73
2022-12-03T19:29:54.172Z,26.33
2022-12-03T19:32:25.113Z,33.03
2022-12-03T19:34:52.923Z,25.97
2022-12-03T19:37:20.730Z,28.87
2022-12-03T19:39:52.577Z,31.53
2022-12-03T19:42:20.686Z,29.83
2022-12-03T19:44:48.522Z,32.97
2022-12-03T19:47:16.640Z,34.50
2022-12-03T19:49:44.459Z,25.87
2022-12-03T19:52:12.177Z,29.67
2022-12-03T19:54:40.654Z,24.47
2022-12-03T19:57:08.914Z,26.30
2022-12-03T19:59:36.788Z,30.80
2022-12-03T20:02:04.661Z,30.60
2022-12-03T20:04:32.560Z,26.37
2022-12-03T20:07:00.353Z,31.17
2022-12-03T20:09:28.394Z,28.80
2022-12-03T20:11:56.300Z,27.27
2022-12-03T20:14:24.158Z,27.63
2022-12-03T20:16:52.087Z,23.27
2022-12-03T20:19:20.008Z,25.17
2022-12-03T20:21:47.910Z,36.80
2022-12-03T20:24:17.433Z,37.10
2022-12-03T20:26:45.502Z,46.40
2022-12-03T20:29:13.899Z,37.27
2022-12-03T20:31:41.744Z,36.47
2022-12-03T20:34:11.224Z,34.60
2022-12-03T20:36:39.953Z,35.37
2022-12-03T20:39:08.396Z,35.57
2022-12-03T20:41:37.458Z,36.47
2022-12-03T20:44:07.627Z,28.13
2022-12-03T20:46:36.260Z,29.50
2022-12-03T20:49:05.647Z,32.03
2022-12-03T20:51:33.717Z,33.13
2022-12-03T20:54:02.601Z,27.37
2022-12-03T20:56:37.304Z,38.00
2022-12-03T20:59:10.442Z,33.60
2022-12-03T21:01:39.061Z,32.83
2022-12-03T21:04:08.882Z,32.23
2022-12-03T21:06:37.885Z,31.43
2022-12-03T21:09:08.485Z,44.47
2022-12-03T21:11:40.210Z,46.20
2022-12-03T21:14:09.625Z,34.17
2022-12-03T21:19:30.193Z,45.33
2022-12-03T21:21:58.093Z,36.50
2022-12-03T21:24:26.084Z,38.73
2022-12-03T21:26:54.002Z,39.57
2022-12-03T21:29:22.523Z,35.23
2022-12-03T21:31:52.836Z,35.87
2022-12-03T21:34:25.116Z,38.63
2022-12-03T21:36:52.908Z,45.27
2022-12-03T21:39:21.780Z,44.93
2022-12-03T21:42:34.836Z,48.67
2022-12-03T21:44:37.544Z,43.10
2022-12-03T21:47:10.160Z,38.57
2022-12-03T21:49:42.043Z,43.97
2022-12-03T21:52:10.664Z,41.70
2022-12-03T21:54:38.541Z,46.50
2022-12-03T21:57:06.357Z,37.97
2022-12-03T21:59:34.228Z,34.77
2022-12-03T22:02:03.322Z,47.63
2022-12-03T22:04:31.316Z,45.20
2022-12-03T22:06:59.158Z,48.50
2022-12-03T22:09:27.155Z,44.63
2022-12-03T22:11:56.954Z,47.10
2022-12-03T22:14:25.123Z,42.50
2022-12-03T22:16:53.175Z,54.23
2022-12-03T22:19:26.126Z,48.67
2022-12-03T22:21:53.885Z,52.57
2022-12-03T22:24:23.697Z,44.60
2022-12-03T22:26:53.516Z,58.07
2022-12-03T22:29:21.522Z,53.90
2022-12-03T22:31:49.408Z,39.03
2022-12-03T22:34:17.398Z,35.67
2022-12-03T22:36:45.236Z,34.30
2022-12-03T22:39:13.114Z,33.60
2022-12-03T22:41:40.993Z,32.87
2022-12-03T22:44:08.887Z,35.57
2022-12-03T22:46:36.715Z,40.00
2022-12-03T22:49:07.427Z,31.73
2022-12-03T22:51:35.920Z,33.47
2022-12-03T22:54:28.179Z,33.00
2022-12-03T22:56:56.115Z,32.43
2022-12-03T22:59:23.992Z,38.33
2022-12-03T23:01:51.888Z,33.33
2022-12-03T23:04:19.847Z,36.23
2022-12-03T23:06:47.684Z,31.60
2022-12-03T23:09:16.820Z,29.63
2022-12-03T23:11:45.503Z,24.30
2022-12-03T23:14:13.585Z,26.10
2022-12-03T23:16:41.596Z,31.00
2022-12-03T23:19:09.439Z,25.77
2022-12-03T23:21:37.274Z,25.00
2022-12-03T23:24:06.288Z,26.33
2022-12-03T23:26:37.238Z,27.53
2022-12-03T23:29:06.498Z,30.33
2022-12-03T23:31:35.050Z,26.70
2022-12-03T23:34:03.533Z,30.37
2022-12-03T23:36:33.678Z,35.30
2022-12-03T23:39:01.570Z,31.17
2022-12-03T23:41:29.453Z,29.60
2022-12-03T23:43:57.692Z,41.73
2022-12-03T23:46:28.062Z,28.37
2022-12-03T23:48:58.638Z,31.87
2022-12-03T23:51:26.754Z,28.87
2022-12-03T23:53:55.645Z,26.17
2022-12-03T23:56:28.160Z,32.87
2022-12-03T23:58:57.404Z,27.37
